sensor_id;sensor_type;location;lat;lon;timestamp;pressure;altitude;pressure_sealevel;temperature;humidity
6038;BME280;3047;42.600;23.470;2023-08-21T00:01:01;93469.63;;;23.60;66.08
6038;BME280;3047;42.600;23.470;2023-08-21T00:03:28;93461.28;;;23.57;65.77
6038;BME280;3047;42.600;23.470;2023-08-21T00:05:55;93464.66;;;23.70;66.27
6038;BME280;3047;42.600;23.470;2023-08-21T00:08:22;93468.19;;;23.56;66.19
6038;BME280;3047;42.600;23.470;2023-08-21T00:10:48;93474.72;;;23.49;66.22
6038;BME280;3047;42.600;23.470;2023-08-21T00:13:16;93465.97;;;23.52;66.21
6038;BME280;3047;42.600;23.470;2023-08-21T00:15:44;93469.00;;;23.57;66.11
6038;BME280;3047;42.600;23.470;2023-08-21T00:18:10;93461.75;;;23.51;66.62
6038;BME280;3047;42.600;23.470;2023-08-21T00:20:37;93461.63;;;23.52;66.93
6038;BME280;3047;42.600;23.470;2023-08-21T00:23:04;93467.13;;;23.48;66.78
6038;BME280;3047;42.600;23.470;2023-08-21T00:25:31;93461.13;;;23.47;66.54
6038;BME280;3047;42.600;23.470;2023-08-21T00:27:57;93459.81;;;23.41;66.95
6038;BME280;3047;42.600;23.470;2023-08-21T00:30:25;93461.81;;;23.38;67.14
6038;BME280;3047;42.600;23.470;2023-08-21T00:32:52;93461.81;;;23.38;67.70
6038;BME280;3047;42.600;23.470;2023-08-21T00:35:19;93459.53;;;23.33;67.46
6038;BME280;3047;42.600;23.470;2023-08-21T00:37:45;93458.50;;;23.36;67.16
6038;BME280;3047;42.600;23.470;2023-08-21T00:40:13;93461.09;;;23.36;67.24
6038;BME280;3047;42.600;23.470;2023-08-21T00:42:40;93463.44;;;23.39;67.30
6038;BME280;3047;42.600;23.470;2023-08-21T00:45:07;93466.56;;;23.31;67.42
6038;BME280;3047;42.600;23.470;2023-08-21T00:47:36;93462.38;;;23.41;66.85
6038;BME280;3047;42.600;23.470;2023-08-21T00:50:04;93467.88;;;23.37;67.42
6038;BME280;3047;42.600;23.470;2023-08-21T00:52:33;93449.19;;;23.22;67.47
6038;BME280;3047;42.600;23.470;2023-08-21T00:55:00;93468.22;;;23.32;67.59
6038;BME280;3047;42.600;23.470;2023-08-21T00:57:27;93473.84;;;23.37;66.73
6038;BME280;3047;42.600;23.470;2023-08-21T00:59:54;93472.81;;;23.40;66.84
6038;BME280;3047;42.600;23.470;2023-08-21T01:02:20;93481.50;;;23.39;67.17
6038;BME280;3047;42.600;23.470;2023-08-21T01:04:48;93478.53;;;23.32;67.50
6038;BME280;3047;42.600;23.470;2023-08-21T01:07:15;93474.31;;;23.31;67.92
6038;BME280;3047;42.600;23.470;2023-08-21T01:09:45;93475.53;;;23.38;67.12
6038;BME280;3047;42.600;23.470;2023-08-21T01:12:23;93463.78;;;23.34;66.64
6038;BME280;3047;42.600;23.470;2023-08-21T01:14:57;93479.53;;;23.42;66.71
6038;BME280;3047;42.600;23.470;2023-08-21T01:17:25;93448.03;;;23.26;66.63
6038;BME280;3047;42.600;23.470;2023-08-21T01:19:55;93469.31;;;23.41;66.62
6038;BME280;3047;42.600;23.470;2023-08-21T01:22:25;93471.88;;;23.41;66.94
6038;BME280;3047;42.600;23.470;2023-08-21T01:24:53;93472.88;;;23.27;67.91
6038;BME280;3047;42.600;23.470;2023-08-21T01:27:20;93468.59;;;23.15;68.36
6038;BME280;3047;42.600;23.470;2023-08-21T01:29:47;93459.44;;;23.11;68.46
6038;BME280;3047;42.600;23.470;2023-08-21T01:32:20;93467.34;;;23.20;68.31
6038;BME280;3047;42.600;23.470;2023-08-21T01:34:49;93469.50;;;23.27;68.16
6038;BME280;3047;42.600;23.470;2023-08-21T01:37:17;93465.16;;;23.27;67.07
6038;BME280;3047;42.600;23.470;2023-08-21T01:39:44;93465.03;;;23.29;67.69
6038;BME280;3047;42.600;23.470;2023-08-21T01:42:12;93447.25;;;23.13;68.22
6038;BME280;3047;42.600;23.470;2023-08-21T01:44:39;93449.00;;;23.12;67.99
6038;BME280;3047;42.600;23.470;2023-08-21T01:47:06;93473.09;;;23.24;67.35
6038;BME280;3047;42.600;23.470;2023-08-21T01:49:33;93469.91;;;23.20;67.91
6038;BME280;3047;42.600;23.470;2023-08-21T01:52:00;93467.25;;;23.22;67.80
6038;BME280;3047;42.600;23.470;2023-08-21T01:54:26;93465.69;;;23.19;67.91
6038;BME280;3047;42.600;23.470;2023-08-21T01:56:53;93468.38;;;23.18;68.04
6038;BME280;3047;42.600;23.470;2023-08-21T01:59:23;93464.00;;;23.07;68.66
6038;BME280;3047;42.600;23.470;2023-08-21T02:01:49;93463.44;;;23.15;68.19
6038;BME280;3047;42.600;23.470;2023-08-21T02:04:16;93454.91;;;23.14;68.16
6038;BME280;3047;42.600;23.470;2023-08-21T02:06:43;93461.81;;;23.14;68.13
6038;BME280;3047;42.600;23.470;2023-08-21T02:09:10;93463.56;;;23.13;67.70
6038;BME280;3047;42.600;23.470;2023-08-21T02:11:37;93463.66;;;23.12;69.45
6038;BME280;3047;42.600;23.470;2023-08-21T02:14:03;93414.38;;;22.80;69.08
6038;BME280;3047;42.600;23.470;2023-08-21T02:16:32;93458.03;;;23.07;68.23
6038;BME280;3047;42.600;23.470;2023-08-21T02:18:58;93460.38;;;23.10;68.00
6038;BME280;3047;42.600;23.470;2023-08-21T02:21:25;93460.16;;;23.13;68.40
6038;BME280;3047;42.600;23.470;2023-08-21T02:23:52;93461.91;;;23.12;68.01
6038;BME280;3047;42.600;23.470;2023-08-21T02:26:18;93450.41;;;23.05;68.20
6038;BME280;3047;42.600;23.470;2023-08-21T02:28:45;93453.06;;;23.04;68.21
6038;BME280;3047;42.600;23.470;2023-08-21T02:31:12;93440.13;;;22.92;68.50
6038;BME280;3047;42.600;23.470;2023-08-21T02:33:40;93407.53;;;22.67;68.69
6038;BME280;3047;42.600;23.470;2023-08-21T02:36:07;93458.56;;;22.99;69.64
6038;BME280;3047;42.600;23.470;2023-08-21T02:38:34;93448.78;;;22.91;69.56
6038;BME280;3047;42.600;23.470;2023-08-21T02:41:00;93461.69;;;22.79;69.44
6038;BME280;3047;42.600;23.470;2023-08-21T02:43:27;93463.09;;;22.83;69.73
6038;BME280;3047;42.600;23.470;2023-08-21T02:45:54;93464.88;;;22.82;69.40
6038;BME280;3047;42.600;23.470;2023-08-21T02:48:21;93460.31;;;22.86;69.91
6038;BME280;3047;42.600;23.470;2023-08-21T02:50:49;93443.84;;;22.76;70.36
6038;BME280;3047;42.600;23.470;2023-08-21T02:53:16;93464.66;;;22.85;71.05
6038;BME280;3047;42.600;23.470;2023-08-21T02:55:43;93461.06;;;22.75;72.15
6038;BME280;3047;42.600;23.470;2023-08-21T02:58:10;93467.69;;;22.66;71.84
6038;BME280;3047;42.600;23.470;2023-08-21T03:00:36;93465.31;;;22.63;71.81
6038;BME280;3047;42.600;23.470;2023-08-21T03:03:03;93461.50;;;22.69;71.73
6038;BME280;3047;42.600;23.470;2023-08-21T03:05:30;93455.13;;;22.62;71.45
6038;BME280;3047;42.600;23.470;2023-08-21T03:07:59;93464.16;;;22.67;70.57
6038;BME280;3047;42.600;23.470;2023-08-21T03:10:25;93463.47;;;22.65;71.00
6038;BME280;3047;42.600;23.470;2023-08-21T03:12:55;93457.59;;;22.63;69.63
6038;BME280;3047;42.600;23.470;2023-08-21T03:15:21;93464.91;;;22.69;69.70
6038;BME280;3047;42.600;23.470;2023-08-21T03:17:48;93461.38;;;22.70;70.20
6038;BME280;3047;42.600;23.470;2023-08-21T03:20:15;93468.63;;;22.65;70.98
6038;BME280;3047;42.600;23.470;2023-08-21T03:22:42;93475.31;;;22.55;71.71
6038;BME280;3047;42.600;23.470;2023-08-21T03:25:11;93482.09;;;22.56;72.38
6038;BME280;3047;42.600;23.470;2023-08-21T03:27:37;93476.97;;;22.56;72.75
6038;BME280;3047;42.600;23.470;2023-08-21T03:30:05;93480.66;;;22.52;73.26
6038;BME280;3047;42.600;23.470;2023-08-21T03:32:32;93482.25;;;22.42;73.84
6038;BME280;3047;42.600;23.470;2023-08-21T03:34:59;93485.00;;;22.39;73.56
6038;BME280;3047;42.600;23.470;2023-08-21T03:37:26;93477.91;;;22.30;73.15
6038;BME280;3047;42.600;23.470;2023-08-21T03:39:53;93476.78;;;22.21;73.48
6038;BME280;3047;42.600;23.470;2023-08-21T03:42:21;93478.84;;;22.29;72.29
6038;BME280;3047;42.600;23.470;2023-08-21T03:44:47;93470.84;;;22.20;72.56
6038;BME280;3047;42.600;23.470;2023-08-21T03:47:15;93464.31;;;22.28;72.22
6038;BME280;3047;42.600;23.470;2023-08-21T03:49:42;93473.91;;;22.38;71.64
6038;BME280;3047;42.600;23.470;2023-08-21T03:52:09;93475.03;;;22.47;70.72
6038;BME280;3047;42.600;23.470;2023-08-21T03:54:35;93480.91;;;22.49;71.02
6038;BME280;3047;42.600;23.470;2023-08-21T03:57:02;93438.59;;;22.28;72.14
6038;BME280;3047;42.600;23.470;2023-08-21T03:59:30;93475.22;;;22.44;71.34
6038;BME280;3047;42.600;23.470;2023-08-21T04:01:57;93480.50;;;22.30;71.23
6038;BME280;3047;42.600;23.470;2023-08-21T04:04:24;93470.72;;;22.35;72.17
6038;BME280;3047;42.600;23.470;2023-08-21T04:06:50;93475.34;;;22.30;72.14
6038;BME280;3047;42.600;23.470;2023-08-21T04:09:17;93469.56;;;22.39;72.98
6038;BME280;3047;42.600;23.470;2023-08-21T04:11:44;93479.75;;;22.53;72.10
6038;BME280;3047;42.600;23.470;2023-08-21T04:14:10;93471.44;;;22.50;73.08
6038;BME280;3047;42.600;23.470;2023-08-21T04:16:38;93477.88;;;22.55;71.88
6038;BME280;3047;42.600;23.470;2023-08-21T04:19:05;93483.78;;;22.57;72.39
6038;BME280;3047;42.600;23.470;2023-08-21T04:21:32;93492.63;;;22.66;72.45
6038;BME280;3047;42.600;23.470;2023-08-21T04:23:59;93492.50;;;22.67;75.51
6038;BME280;3047;42.600;23.470;2023-08-21T04:26:25;93481.28;;;22.56;76.09
6038;BME280;3047;42.600;23.470;2023-08-21T04:28:52;93493.44;;;22.66;76.86
6038;BME280;3047;42.600;23.470;2023-08-21T04:31:19;93493.94;;;22.71;78.11
6038;BME280;3047;42.600;23.470;2023-08-21T04:33:47;93497.69;;;22.42;76.08
6038;BME280;3047;42.600;23.470;2023-08-21T04:36:17;93466.81;;;22.29;75.93
6038;BME280;3047;42.600;23.470;2023-08-21T04:38:43;93500.13;;;22.56;74.53
6038;BME280;3047;42.600;23.470;2023-08-21T04:41:10;93494.75;;;22.72;76.75
6038;BME280;3047;42.600;23.470;2023-08-21T04:43:37;93502.06;;;22.78;78.63
6038;BME280;3047;42.600;23.470;2023-08-21T04:46:04;93488.47;;;22.76;79.52
6038;BME280;3047;42.600;23.470;2023-08-21T04:48:31;93496.59;;;22.83;79.96
6038;BME280;3047;42.600;23.470;2023-08-21T04:50:59;93493.81;;;22.86;80.88
6038;BME280;3047;42.600;23.470;2023-08-21T04:53:26;93499.50;;;22.91;81.58
6038;BME280;3047;42.600;23.470;2023-08-21T04:55:53;93499.59;;;22.89;81.28
6038;BME280;3047;42.600;23.470;2023-08-21T04:58:19;93492.66;;;22.90;81.18
6038;BME280;3047;42.600;23.470;2023-08-21T05:00:46;93501.94;;;22.92;80.11
6038;BME280;3047;42.600;23.470;2023-08-21T05:03:13;93508.94;;;23.03;79.47
6038;BME280;3047;42.600;23.470;2023-08-21T05:05:39;93506.66;;;23.11;81.17
6038;BME280;3047;42.600;23.470;2023-08-21T05:08:07;93468.88;;;22.86;82.64
6038;BME280;3047;42.600;23.470;2023-08-21T05:10:34;93511.66;;;23.26;80.51
6038;BME280;3047;42.600;23.470;2023-08-21T05:13:01;93510.41;;;23.31;78.81
6038;BME280;3047;42.600;23.470;2023-08-21T05:15:30;93520.38;;;23.36;77.76
6038;BME280;3047;42.600;23.470;2023-08-21T05:17:56;93519.09;;;23.41;77.25
6038;BME280;3047;42.600;23.470;2023-08-21T05:20:23;93524.53;;;23.50;77.83
6038;BME280;3047;42.600;23.470;2023-08-21T05:22:50;93528.56;;;23.54;77.90
6038;BME280;3047;42.600;23.470;2023-08-21T05:25:18;93522.81;;;23.50;78.39
6038;BME280;3047;42.600;23.470;2023-08-21T05:27:45;93527.31;;;23.59;78.02
6038;BME280;3047;42.600;23.470;2023-08-21T05:30:12;93525.28;;;23.76;76.67
6038;BME280;3047;42.600;23.470;2023-08-21T05:32:39;93529.16;;;23.81;75.99
6038;BME280;3047;42.600;23.470;2023-08-21T05:35:06;93519.84;;;23.91;76.86
6038;BME280;3047;42.600;23.470;2023-08-21T05:37:33;93519.72;;;23.93;76.61
6038;BME280;3047;42.600;23.470;2023-08-21T05:40:00;93523.16;;;24.05;75.72
6038;BME280;3047;42.600;23.470;2023-08-21T05:42:30;93518.59;;;24.08;75.53
6038;BME280;3047;42.600;23.470;2023-08-21T05:44:56;93514.84;;;24.12;76.64
6038;BME280;3047;42.600;23.470;2023-08-21T05:47:23;93510.16;;;24.17;75.72
6038;BME280;3047;42.600;23.470;2023-08-21T05:49:52;93520.63;;;24.27;73.77
6038;BME280;3047;42.600;23.470;2023-08-21T05:52:19;93513.00;;;24.37;75.41
6038;BME280;3047;42.600;23.470;2023-08-21T05:54:46;93521.38;;;24.40;76.27
6038;BME280;3047;42.600;23.470;2023-08-21T05:57:12;93517.88;;;24.53;73.38
6038;BME280;3047;42.600;23.470;2023-08-21T05:59:44;93521.63;;;24.71;72.45
6038;BME280;3047;42.600;23.470;2023-08-21T06:02:12;93515.41;;;24.74;73.39
6038;BME280;3047;42.600;23.470;2023-08-21T06:04:39;93523.38;;;24.71;75.48
6038;BME280;3047;42.600;23.470;2023-08-21T06:07:06;93524.94;;;24.84;74.08
6038;BME280;3047;42.600;23.470;2023-08-21T06:09:33;93526.44;;;24.98;73.45
6038;BME280;3047;42.600;23.470;2023-08-21T06:12:01;93482.19;;;24.80;72.74
6038;BME280;3047;42.600;23.470;2023-08-21T06:14:27;93534.22;;;25.21;71.30
6038;BME280;3047;42.600;23.470;2023-08-21T06:16:56;93536.22;;;25.17;73.07
6038;BME280;3047;42.600;23.470;2023-08-21T06:19:23;93536.22;;;25.17;72.46
6038;BME280;3047;42.600;23.470;2023-08-21T06:21:50;93536.06;;;25.07;72.66
6038;BME280;3047;42.600;23.470;2023-08-21T06:24:16;93536.91;;;25.08;72.43
6038;BME280;3047;42.600;23.470;2023-08-21T06:26:43;93539.84;;;25.14;74.89
6038;BME280;3047;42.600;23.470;2023-08-21T06:29:10;93537.97;;;25.17;73.12
6038;BME280;3047;42.600;23.470;2023-08-21T06:31:36;93540.44;;;25.29;71.24
6038;BME280;3047;42.600;23.470;2023-08-21T06:34:05;93537.09;;;25.38;70.06
6038;BME280;3047;42.600;23.470;2023-08-21T06:36:31;93540.16;;;25.44;70.76
6038;BME280;3047;42.600;23.470;2023-08-21T06:38:58;93543.91;;;25.51;70.78
6038;BME280;3047;42.600;23.470;2023-08-21T06:41:25;93545.91;;;25.47;71.86
6038;BME280;3047;42.600;23.470;2023-08-21T06:43:51;93555.06;;;25.51;71.62
6038;BME280;3047;42.600;23.470;2023-08-21T06:46:18;93540.56;;;25.60;70.97
6038;BME280;3047;42.600;23.470;2023-08-21T06:48:45;93549.38;;;25.69;70.00
6038;BME280;3047;42.600;23.470;2023-08-21T06:51:13;93546.09;;;25.67;69.21
6038;BME280;3047;42.600;23.470;2023-08-21T06:53:40;93520.38;;;25.54;69.14
6038;BME280;3047;42.600;23.470;2023-08-21T06:56:06;93541.94;;;25.75;68.72
6038;BME280;3047;42.600;23.470;2023-08-21T06:58:33;93545.28;;;25.77;70.18
6038;BME280;3047;42.600;23.470;2023-08-21T07:01:00;93530.91;;;25.73;69.37
6038;BME280;3047;42.600;23.470;2023-08-21T07:03:27;93545.34;;;25.87;69.27
6038;BME280;3047;42.600;23.470;2023-08-21T07:05:54;93548.00;;;25.97;68.48
6038;BME280;3047;42.600;23.470;2023-08-21T07:08:23;93550.09;;;26.03;69.06
6038;BME280;3047;42.600;23.470;2023-08-21T07:10:50;93546.88;;;26.10;68.64
6038;BME280;3047;42.600;23.470;2023-08-21T07:13:17;93549.09;;;26.15;68.37
6038;BME280;3047;42.600;23.470;2023-08-21T07:15:44;93551.31;;;26.20;68.78
6038;BME280;3047;42.600;23.470;2023-08-21T07:18:10;93517.59;;;25.89;66.54
6038;BME280;3047;42.600;23.470;2023-08-21T07:20:38;93547.28;;;26.27;66.50
6038;BME280;3047;42.600;23.470;2023-08-21T07:23:04;93501.47;;;26.06;66.81
6038;BME280;3047;42.600;23.470;2023-08-21T07:25:32;93497.44;;;26.13;65.65
6038;BME280;3047;42.600;23.470;2023-08-21T07:27:59;93554.28;;;26.57;65.83
6038;BME280;3047;42.600;23.470;2023-08-21T07:30:27;93544.00;;;26.67;65.81
6038;BME280;3047;42.600;23.470;2023-08-21T07:32:54;93541.84;;;26.72;62.99
6038;BME280;3047;42.600;23.470;2023-08-21T07:35:20;93544.59;;;26.80;63.17
6038;BME280;3047;42.600;23.470;2023-08-21T07:37:47;93544.53;;;26.91;62.26
6038;BME280;3047;42.600;23.470;2023-08-21T07:40:14;93546.19;;;27.02;61.13
6038;BME280;3047;42.600;23.470;2023-08-21T07:42:42;93547.66;;;27.16;62.40
6038;BME280;3047;42.600;23.470;2023-08-21T07:45:09;93543.59;;;27.32;61.21
6038;BME280;3047;42.600;23.470;2023-08-21T07:47:36;93543.34;;;27.45;62.39
6038;BME280;3047;42.600;23.470;2023-08-21T07:50:04;93475.28;;;27.13;59.83
6038;BME280;3047;42.600;23.470;2023-08-21T07:52:31;93542.59;;;27.74;60.94
6038;BME280;3047;42.600;23.470;2023-08-21T07:54:58;93547.97;;;27.92;58.21
6038;BME280;3047;42.600;23.470;2023-08-21T07:57:26;93534.53;;;28.06;56.70
6038;BME280;3047;42.600;23.470;2023-08-21T07:59:54;93543.41;;;28.23;57.64
6038;BME280;3047;42.600;23.470;2023-08-21T08:02:22;93529.78;;;28.40;56.86
6038;BME280;3047;42.600;23.470;2023-08-21T08:04:49;93526.81;;;28.63;54.24
6038;BME280;3047;42.600;23.470;2023-08-21T08:07:15;93542.34;;;29.01;53.11
6038;BME280;3047;42.600;23.470;2023-08-21T08:09:42;93543.03;;;29.31;52.22
6038;BME280;3047;42.600;23.470;2023-08-21T08:12:09;93544.50;;;29.61;50.02
6038;BME280;3047;42.600;23.470;2023-08-21T08:14:36;93540.59;;;29.93;50.50
6038;BME280;3047;42.600;23.470;2023-08-21T08:17:04;93493.13;;;29.99;47.25
6038;BME280;3047;42.600;23.470;2023-08-21T08:19:31;93539.97;;;30.52;46.82
6038;BME280;3047;42.600;23.470;2023-08-21T08:21:57;93531.38;;;30.86;48.27
6038;BME280;3047;42.600;23.470;2023-08-21T08:24:24;93533.50;;;31.17;45.75
6038;BME280;3047;42.600;23.470;2023-08-21T08:26:51;93534.63;;;31.48;46.80
6038;BME280;3047;42.600;23.470;2023-08-21T08:29:17;93531.91;;;31.74;43.45
6038;BME280;3047;42.600;23.470;2023-08-21T08:31:44;93526.13;;;32.05;43.44
6038;BME280;3047;42.600;23.470;2023-08-21T08:34:12;93529.22;;;32.33;42.10
6038;BME280;3047;42.600;23.470;2023-08-21T08:36:39;93529.88;;;32.60;42.13
6038;BME280;3047;42.600;23.470;2023-08-21T08:39:06;93522.97;;;32.83;42.01
6038;BME280;3047;42.600;23.470;2023-08-21T08:41:39;93520.94;;;33.10;41.23
6038;BME280;3047;42.600;23.470;2023-08-21T08:44:11;93512.69;;;33.29;41.15
6038;BME280;3047;42.600;23.470;2023-08-21T08:46:39;93521.00;;;33.41;39.09
6038;BME280;3047;42.600;23.470;2023-08-21T08:49:05;93518.38;;;33.49;39.45
6038;BME280;3047;42.600;23.470;2023-08-21T08:51:34;93521.88;;;33.64;38.75
6038;BME280;3047;42.600;23.470;2023-08-21T08:54:04;93515.44;;;33.75;37.98
6038;BME280;3047;42.600;23.470;2023-08-21T08:56:31;93515.22;;;33.85;38.15
6038;BME280;3047;42.600;23.470;2023-08-21T08:58:57;93506.34;;;33.86;37.11
6038;BME280;3047;42.600;23.470;2023-08-21T09:01:24;93512.50;;;34.01;37.87
6038;BME280;3047;42.600;23.470;2023-08-21T09:03:51;93510.16;;;34.06;35.33
6038;BME280;3047;42.600;23.470;2023-08-21T09:06:17;93506.28;;;34.02;37.43
6038;BME280;3047;42.600;23.470;2023-08-21T09:08:55;93508.59;;;34.20;37.30
6038;BME280;3047;42.600;23.470;2023-08-21T09:11:22;93507.06;;;34.26;37.37
6038;BME280;3047;42.600;23.470;2023-08-21T09:13:49;93510.03;;;34.45;36.88
6038;BME280;3047;42.600;23.470;2023-08-21T09:16:17;93499.28;;;34.55;35.90
6038;BME280;3047;42.600;23.470;2023-08-21T09:18:46;93504.09;;;34.66;34.94
6038;BME280;3047;42.600;23.470;2023-08-21T09:21:16;93507.31;;;34.77;35.47
6038;BME280;3047;42.600;23.470;2023-08-21T09:23:42;93496.59;;;34.78;35.06
6038;BME280;3047;42.600;23.470;2023-08-21T09:26:10;93466.09;;;34.62;34.18
6038;BME280;3047;42.600;23.470;2023-08-21T09:28:37;93497.88;;;34.82;34.29
6038;BME280;3047;42.600;23.470;2023-08-21T09:31:04;93454.16;;;34.60;33.91
6038;BME280;3047;42.600;23.470;2023-08-21T09:33:31;93498.69;;;34.83;33.08
6038;BME280;3047;42.600;23.470;2023-08-21T09:35:57;93493.09;;;34.86;33.41
6038;BME280;3047;42.600;23.470;2023-08-21T09:38:26;93491.72;;;34.90;33.15
6038;BME280;3047;42.600;23.470;2023-08-21T09:40:54;93492.66;;;34.97;33.09
6038;BME280;3047;42.600;23.470;2023-08-21T09:43:23;93494.16;;;34.91;32.22
6038;BME280;3047;42.600;23.470;2023-08-21T09:45:51;93485.22;;;34.86;32.02
6038;BME280;3047;42.600;23.470;2023-08-21T09:48:21;93486.97;;;34.56;32.72
6038;BME280;3047;42.600;23.470;2023-08-21T09:50:48;93486.63;;;34.59;33.40
6038;BME280;3047;42.600;23.470;2023-08-21T09:53:16;93487.56;;;34.66;33.51
6038;BME280;3047;42.600;23.470;2023-08-21T09:55:43;93485.03;;;34.87;33.89
6038;BME280;3047;42.600;23.470;2023-08-21T09:58:10;93482.78;;;34.99;32.98
6038;BME280;3047;42.600;23.470;2023-08-21T10:00:39;93470.66;;;34.98;32.10
6038;BME280;3047;42.600;23.470;2023-08-21T10:03:07;93472.19;;;35.07;34.00
6038;BME280;3047;42.600;23.470;2023-08-21T10:05:36;93474.56;;;35.17;32.49
6038;BME280;3047;42.600;23.470;2023-08-21T10:08:04;93472.19;;;35.22;32.46
6038;BME280;3047;42.600;23.470;2023-08-21T10:10:33;93435.53;;;34.99;32.72
6038;BME280;3047;42.600;23.470;2023-08-21T10:13:00;93463.22;;;35.16;32.05
6038;BME280;3047;42.600;23.470;2023-08-21T10:15:28;93440.50;;;35.09;32.82
6038;BME280;3047;42.600;23.470;2023-08-21T10:17:56;93460.41;;;35.18;31.50
6038;BME280;3047;42.600;23.470;2023-08-21T10:20:25;93459.31;;;35.12;32.09
6038;BME280;3047;42.600;23.470;2023-08-21T10:22:53;93452.09;;;35.00;32.50
6038;BME280;3047;42.600;23.470;2023-08-21T10:25:21;93451.03;;;35.09;32.91
6038;BME280;3047;42.600;23.470;2023-08-21T10:27:50;93459.78;;;35.16;32.33
6038;BME280;3047;42.600;23.470;2023-08-21T10:30:20;93450.81;;;35.25;32.65
6038;BME280;3047;42.600;23.470;2023-08-21T10:32:48;93448.00;;;35.27;32.12
6038;BME280;3047;42.600;23.470;2023-08-21T10:35:18;93442.03;;;35.18;31.44
6038;BME280;3047;42.600;23.470;2023-08-21T10:38:08;93438.19;;;35.21;32.76
6038;BME280;3047;42.600;23.470;2023-08-21T10:40:39;93442.38;;;35.30;33.15
6038;BME280;3047;42.600;23.470;2023-08-21T10:43:39;93441.84;;;35.20;31.06
6038;BME280;3047;42.600;23.470;2023-08-21T10:46:06;93433.34;;;35.17;30.89
6038;BME280;3047;42.600;23.470;2023-08-21T10:48:33;93438.75;;;35.16;30.68
6038;BME280;3047;42.600;23.470;2023-08-21T10:51:03;93401.75;;;35.11;32.54
6038;BME280;3047;42.600;23.470;2023-08-21T10:53:30;93416.66;;;35.25;31.97
6038;BME280;3047;42.600;23.470;2023-08-21T10:56:01;93408.03;;;35.31;31.48
6038;BME280;3047;42.600;23.470;2023-08-21T10:58:28;93418.31;;;35.48;32.35
6038;BME280;3047;42.600;23.470;2023-08-21T11:00:58;93415.88;;;35.46;31.81
6038;BME280;3047;42.600;23.470;2023-08-21T11:03:25;93426.53;;;35.23;30.82
6038;BME280;3047;42.600;23.470;2023-08-21T11:06:03;93416.50;;;34.82;30.94
6038;BME280;3047;42.600;23.470;2023-08-21T11:08:31;93422.41;;;34.55;30.68
6038;BME280;3047;42.600;23.470;2023-08-21T11:10:58;93426.69;;;34.48;32.44
6038;BME280;3047;42.600;23.470;2023-08-21T11:13:25;93408.56;;;34.61;33.54
6038;BME280;3047;42.600;23.470;2023-08-21T11:15:58;93396.97;;;34.70;31.80
6038;BME280;3047;42.600;23.470;2023-08-21T11:18:32;93410.81;;;34.79;33.05
6038;BME280;3047;42.600;23.470;2023-08-21T11:21:05;93393.72;;;34.68;31.82
6038;BME280;3047;42.600;23.470;2023-08-21T11:23:32;93407.28;;;34.72;31.38
6038;BME280;3047;42.600;23.470;2023-08-21T11:25:59;93387.50;;;34.31;30.59
6038;BME280;3047;42.600;23.470;2023-08-21T11:28:28;93411.28;;;34.15;30.93
6038;BME280;3047;42.600;23.470;2023-08-21T11:30:55;93411.66;;;33.89;31.26
6038;BME280;3047;42.600;23.470;2023-08-21T11:33:22;93357.44;;;33.52;31.65
6038;BME280;3047;42.600;23.470;2023-08-21T11:35:49;93397.75;;;33.88;31.75
6038;BME280;3047;42.600;23.470;2023-08-21T11:38:21;93404.50;;;34.06;31.97
6038;BME280;3047;42.600;23.470;2023-08-21T11:40:54;93391.75;;;34.17;30.21
6038;BME280;3047;42.600;23.470;2023-08-21T11:43:22;93394.50;;;34.24;30.68
6038;BME280;3047;42.600;23.470;2023-08-21T11:45:49;93384.81;;;34.25;30.83
6038;BME280;3047;42.600;23.470;2023-08-21T11:48:19;93384.63;;;34.26;30.60
6038;BME280;3047;42.600;23.470;2023-08-21T11:50:48;93388.88;;;34.42;30.53
6038;BME280;3047;42.600;23.470;2023-08-21T11:53:15;93393.41;;;34.33;29.60
6038;BME280;3047;42.600;23.470;2023-08-21T11:55:43;93381.00;;;34.27;30.79
6038;BME280;3047;42.600;23.470;2023-08-21T11:58:10;93379.47;;;34.18;31.26
6038;BME280;3047;42.600;23.470;2023-08-21T12:00:39;93380.28;;;34.18;30.08
6038;BME280;3047;42.600;23.470;2023-08-21T12:03:06;93381.09;;;34.19;31.46
6038;BME280;3047;42.600;23.470;2023-08-21T12:05:42;93388.59;;;34.07;30.09
6038;BME280;3047;42.600;23.470;2023-08-21T12:08:12;93392.72;;;34.02;30.42
6038;BME280;3047;42.600;23.470;2023-08-21T12:10:39;93393.19;;;34.05;30.45
6038;BME280;3047;42.600;23.470;2023-08-21T12:13:07;93391.28;;;33.99;31.16
6038;BME280;3047;42.600;23.470;2023-08-21T12:15:34;93387.72;;;33.92;30.09
6038;BME280;3047;42.600;23.470;2023-08-21T12:18:00;93379.63;;;33.79;30.12
6038;BME280;3047;42.600;23.470;2023-08-21T12:20:27;93378.81;;;33.78;30.69
6038;BME280;3047;42.600;23.470;2023-08-21T12:22:54;93376.50;;;33.83;31.20
6038;BME280;3047;42.600;23.470;2023-08-21T12:25:21;93367.72;;;33.76;30.47
6038;BME280;3047;42.600;23.470;2023-08-21T12:27:49;93372.59;;;33.79;30.58
6038;BME280;3047;42.600;23.470;2023-08-21T12:30:17;93372.22;;;33.82;30.98
6038;BME280;3047;42.600;23.470;2023-08-21T12:32:44;93369.13;;;33.79;31.04
6038;BME280;3047;42.600;23.470;2023-08-21T12:35:10;93363.75;;;33.80;30.88
6038;BME280;3047;42.600;23.470;2023-08-21T12:37:37;93376.38;;;33.77;30.75
6038;BME280;3047;42.600;23.470;2023-08-21T12:40:05;93371.63;;;33.57;30.24
6038;BME280;3047;42.600;23.470;2023-08-21T12:42:32;93367.66;;;33.38;31.49
6038;BME280;3047;42.600;23.470;2023-08-21T12:44:59;93370.66;;;33.27;30.96
6038;BME280;3047;42.600;23.470;2023-08-21T12:47:27;93370.28;;;33.30;31.22
6038;BME280;3047;42.600;23.470;2023-08-21T12:49:54;93339.00;;;33.14;32.15
6038;BME280;3047;42.600;23.470;2023-08-21T12:52:20;93360.75;;;33.37;30.41
6038;BME280;3047;42.600;23.470;2023-08-21T12:54:47;93361.69;;;33.21;30.89
6038;BME280;3047;42.600;23.470;2023-08-21T12:57:14;93351.97;;;33.07;31.30
6038;BME280;3047;42.600;23.470;2023-08-21T12:59:42;93352.84;;;33.00;32.55
6038;BME280;3047;42.600;23.470;2023-08-21T13:02:08;93353.31;;;33.03;32.94
6038;BME280;3047;42.600;23.470;2023-08-21T13:04:37;93354.25;;;33.10;32.26
6038;BME280;3047;42.600;23.470;2023-08-21T13:07:04;93345.66;;;32.93;30.86
6038;BME280;3047;42.600;23.470;2023-08-21T13:09:31;93342.25;;;32.85;31.20
6038;BME280;3047;42.600;23.470;2023-08-21T13:11:59;93333.81;;;32.74;29.82